Woodboro, Wisconsin
Current Conditions -  °F | °C
As of 3:53 AM on Sunday 23 Nov 2014 (Local Time) from KRHI Reporting Station
Moderate Fog Moderate Fog  
Wind Chill: 36°   Ceiling: 200
Heat Index: 41°   Visibility: 0.5mi
Dew Point: 41°   Wind: 7mph
Humidity: 100%   Direction: 170°S
Pressure: 29.55"   Gusts: NA
Location:  45.6521°N, 89.3386°W
Report Text: KRHI 230953Z AUTO 17006KT 1/2SM FG VV002 05/05 A2955 RMK AO2 SLP018 T00500050
Loading
Personal Weather Stations






























Interactive Weather Map New forecast layout! Learn more

10-Day Weather Forecast

Advertisements
Track Severe Weather on mobile